sensor_id;sensor_type;location;lat;lon;timestamp;P1;durP1;ratioP1;P2;durP2;ratioP2
65658;SDS011;60181;53.258;6.932;2024-02-21T00:03:13;11.00;;;3.30;;
65658;SDS011;60181;53.258;6.932;2024-02-21T00:07:25;11.00;;;3.30;;
65658;SDS011;60181;53.258;6.932;2024-02-21T00:11:37;13.20;;;3.30;;
65658;SDS011;60181;53.258;6.932;2024-02-21T00:15:49;13.20;;;3.30;;
65658;SDS011;60181;53.258;6.932;2024-02-21T00:20:01;15.60;;;3.40;;
65658;SDS011;60181;53.258;6.932;2024-02-21T00:24:13;15.60;;;3.40;;
65658;SDS011;60181;53.258;6.932;2024-02-21T00:28:25;15.60;;;3.40;;
65658;SDS011;60181;53.258;6.932;2024-02-21T00:32:37;17.40;;;3.30;;
65658;SDS011;60181;53.258;6.932;2024-02-21T00:36:49;17.40;;;3.30;;
65658;SDS011;60181;53.258;6.932;2024-02-21T00:41:01;15.30;;;3.10;;
65658;SDS011;60181;53.258;6.932;2024-02-21T00:45:13;15.30;;;3.10;;
65658;SDS011;60181;53.258;6.932;2024-02-21T00:49:25;17.50;;;3.30;;
65658;SDS011;60181;53.258;6.932;2024-02-21T00:53:37;17.50;;;3.30;;
65658;SDS011;60181;53.258;6.932;2024-02-21T00:57:49;17.50;;;3.30;;
65658;SDS011;60181;53.258;6.932;2024-02-21T01:02:01;19.10;;;3.20;;
65658;SDS011;60181;53.258;6.932;2024-02-21T01:06:13;19.10;;;3.20;;
65658;SDS011;60181;53.258;6.932;2024-02-21T01:10:25;17.00;;;3.10;;
65658;SDS011;60181;53.258;6.932;2024-02-21T01:14:37;17.00;;;3.10;;
65658;SDS011;60181;53.258;6.932;2024-02-21T01:18:49;17.00;;;3.10;;
65658;SDS011;60181;53.258;6.932;2024-02-21T01:23:01;15.80;;;3.20;;
65658;SDS011;60181;53.258;6.932;2024-02-21T01:27:13;15.80;;;3.20;;
65658;SDS011;60181;53.258;6.932;2024-02-21T01:31:25;15.60;;;3.30;;
65658;SDS011;60181;53.258;6.932;2024-02-21T01:35:37;15.60;;;3.30;;
65658;SDS011;60181;53.258;6.932;2024-02-21T01:39:49;17.70;;;3.40;;
65658;SDS011;60181;53.258;6.932;2024-02-21T01:44:01;17.70;;;3.40;;
65658;SDS011;60181;53.258;6.932;2024-02-21T01:48:13;17.70;;;3.40;;
65658;SDS011;60181;53.258;6.932;2024-02-21T01:52:25;17.70;;;3.50;;
65658;SDS011;60181;53.258;6.932;2024-02-21T01:56:37;17.70;;;3.50;;
65658;SDS011;60181;53.258;6.932;2024-02-21T02:00:49;21.00;;;4.00;;
65658;SDS011;60181;53.258;6.932;2024-02-21T02:05:01;21.00;;;4.00;;
65658;SDS011;60181;53.258;6.932;2024-02-21T02:09:13;16.20;;;3.80;;
65658;SDS011;60181;53.258;6.932;2024-02-21T02:13:25;16.20;;;3.80;;
65658;SDS011;60181;53.258;6.932;2024-02-21T02:17:37;16.20;;;3.80;;
65658;SDS011;60181;53.258;6.932;2024-02-21T02:21:49;15.40;;;3.90;;
65658;SDS011;60181;53.258;6.932;2024-02-21T02:26:01;15.40;;;3.90;;
65658;SDS011;60181;53.258;6.932;2024-02-21T02:30:13;17.50;;;3.80;;
65658;SDS011;60181;53.258;6.932;2024-02-21T02:34:25;17.50;;;3.80;;
65658;SDS011;60181;53.258;6.932;2024-02-21T02:38:37;17.50;;;3.80;;
65658;SDS011;60181;53.258;6.932;2024-02-21T02:42:49;16.50;;;3.70;;
65658;SDS011;60181;53.258;6.932;2024-02-21T02:47:01;16.50;;;3.70;;
65658;SDS011;60181;53.258;6.932;2024-02-21T02:51:13;11.20;;;3.50;;
65658;SDS011;60181;53.258;6.932;2024-02-21T02:55:25;11.20;;;3.50;;
65658;SDS011;60181;53.258;6.932;2024-02-21T02:59:37;12.00;;;3.60;;
65658;SDS011;60181;53.258;6.932;2024-02-21T03:03:49;12.00;;;3.60;;
65658;SDS011;60181;53.258;6.932;2024-02-21T03:08:01;12.00;;;3.60;;
65658;SDS011;60181;53.258;6.932;2024-02-21T03:12:13;13.40;;;3.30;;
65658;SDS011;60181;53.258;6.932;2024-02-21T03:16:25;13.40;;;3.30;;
65658;SDS011;60181;53.258;6.932;2024-02-21T03:20:37;11.50;;;3.30;;
65658;SDS011;60181;53.258;6.932;2024-02-21T03:24:49;11.50;;;3.30;;
65658;SDS011;60181;53.258;6.932;2024-02-21T03:29:01;11.50;;;3.30;;
65658;SDS011;60181;53.258;6.932;2024-02-21T03:33:13;14.00;;;3.20;;
65658;SDS011;60181;53.258;6.932;2024-02-21T03:37:25;14.00;;;3.20;;
65658;SDS011;60181;53.258;6.932;2024-02-21T03:41:37;17.40;;;3.30;;
65658;SDS011;60181;53.258;6.932;2024-02-21T03:45:49;17.40;;;3.30;;
65658;SDS011;60181;53.258;6.932;2024-02-21T03:50:01;15.60;;;3.10;;
65658;SDS011;60181;53.258;6.932;2024-02-21T03:54:13;15.60;;;3.10;;
65658;SDS011;60181;53.258;6.932;2024-02-21T03:58:25;15.60;;;3.10;;
65658;SDS011;60181;53.258;6.932;2024-02-21T04:02:37;16.90;;;3.50;;
65658;SDS011;60181;53.258;6.932;2024-02-21T04:06:49;16.90;;;3.50;;
65658;SDS011;60181;53.258;6.932;2024-02-21T04:11:01;18.00;;;3.70;;
65658;SDS011;60181;53.258;6.932;2024-02-21T04:15:13;18.00;;;3.70;;
65658;SDS011;60181;53.258;6.932;2024-02-21T04:19:25;18.40;;;3.60;;
65658;SDS011;60181;53.258;6.932;2024-02-21T04:23:37;18.40;;;3.60;;
65658;SDS011;60181;53.258;6.932;2024-02-21T04:27:49;18.40;;;3.60;;
65658;SDS011;60181;53.258;6.932;2024-02-21T04:32:01;22.90;;;4.00;;
65658;SDS011;60181;53.258;6.932;2024-02-21T04:36:13;22.90;;;4.00;;
65658;SDS011;60181;53.258;6.932;2024-02-21T04:40:25;15.20;;;4.00;;
65658;SDS011;60181;53.258;6.932;2024-02-21T04:44:37;15.20;;;4.00;;
65658;SDS011;60181;53.258;6.932;2024-02-21T04:48:49;15.20;;;4.00;;
65658;SDS011;60181;53.258;6.932;2024-02-21T04:53:01;18.90;;;4.50;;
65658;SDS011;60181;53.258;6.932;2024-02-21T04:57:13;18.90;;;4.50;;
65658;SDS011;60181;53.258;6.932;2024-02-21T05:01:25;25.00;;;4.70;;
65658;SDS011;60181;53.258;6.932;2024-02-21T05:05:37;25.00;;;4.70;;
65658;SDS011;60181;53.258;6.932;2024-02-21T05:09:49;16.40;;;4.00;;
65658;SDS011;60181;53.258;6.932;2024-02-21T05:14:01;16.40;;;4.00;;
65658;SDS011;60181;53.258;6.932;2024-02-21T05:18:13;16.40;;;4.00;;
65658;SDS011;60181;53.258;6.932;2024-02-21T05:22:25;21.10;;;3.70;;
65658;SDS011;60181;53.258;6.932;2024-02-21T05:26:37;21.10;;;3.70;;
65658;SDS011;60181;53.258;6.932;2024-02-21T05:30:49;17.00;;;3.40;;
65658;SDS011;60181;53.258;6.932;2024-02-21T05:35:01;17.00;;;3.40;;
65658;SDS011;60181;53.258;6.932;2024-02-21T05:39:13;12.60;;;3.30;;
65658;SDS011;60181;53.258;6.932;2024-02-21T05:43:25;12.60;;;3.30;;
65658;SDS011;60181;53.258;6.932;2024-02-21T05:47:37;12.60;;;3.30;;
65658;SDS011;60181;53.258;6.932;2024-02-21T05:51:49;10.00;;;2.50;;
65658;SDS011;60181;53.258;6.932;2024-02-21T05:56:01;10.00;;;2.50;;
65658;SDS011;60181;53.258;6.932;2024-02-21T06:00:13;19.00;;;2.80;;
65658;SDS011;60181;53.258;6.932;2024-02-21T06:04:25;19.00;;;2.80;;
65658;SDS011;60181;53.258;6.932;2024-02-21T06:08:37;19.00;;;2.80;;
65658;SDS011;60181;53.258;6.932;2024-02-21T06:12:49;19.60;;;2.60;;
65658;SDS011;60181;53.258;6.932;2024-02-21T06:17:01;19.60;;;2.60;;
65658;SDS011;60181;53.258;6.932;2024-02-21T06:21:13;16.70;;;2.00;;
65658;SDS011;60181;53.258;6.932;2024-02-21T06:25:25;16.70;;;2.00;;
65658;SDS011;60181;53.258;6.932;2024-02-21T06:29:37;16.80;;;2.30;;
65658;SDS011;60181;53.258;6.932;2024-02-21T06:33:49;16.80;;;2.30;;
65658;SDS011;60181;53.258;6.932;2024-02-21T06:38:01;16.80;;;2.30;;
65658;SDS011;60181;53.258;6.932;2024-02-21T06:42:13;8.00;;;1.90;;
65658;SDS011;60181;53.258;6.932;2024-02-21T06:46:25;8.00;;;1.90;;
65658;SDS011;60181;53.258;6.932;2024-02-21T06:50:37;7.00;;;1.70;;
65658;SDS011;60181;53.258;6.932;2024-02-21T06:54:49;7.00;;;1.70;;
65658;SDS011;60181;53.258;6.932;2024-02-21T06:59:01;7.00;;;1.70;;
65658;SDS011;60181;53.258;6.932;2024-02-21T07:03:13;8.30;;;2.00;;
65658;SDS011;60181;53.258;6.932;2024-02-21T07:07:25;8.30;;;2.00;;
65658;SDS011;60181;53.258;6.932;2024-02-21T07:11:37;6.20;;;1.80;;
65658;SDS011;60181;53.258;6.932;2024-02-21T07:15:49;6.20;;;1.80;;
65658;SDS011;60181;53.258;6.932;2024-02-21T07:20:01;8.20;;;1.70;;
65658;SDS011;60181;53.258;6.932;2024-02-21T07:24:13;8.20;;;1.70;;
65658;SDS011;60181;53.258;6.932;2024-02-21T07:28:25;8.20;;;1.70;;
65658;SDS011;60181;53.258;6.932;2024-02-21T07:32:37;8.60;;;1.90;;
65658;SDS011;60181;53.258;6.932;2024-02-21T07:36:49;8.60;;;1.90;;
65658;SDS011;60181;53.258;6.932;2024-02-21T07:41:01;7.90;;;1.80;;
65658;SDS011;60181;53.258;6.932;2024-02-21T07:45:13;7.90;;;1.80;;
65658;SDS011;60181;53.258;6.932;2024-02-21T07:49:25;8.40;;;1.80;;
65658;SDS011;60181;53.258;6.932;2024-02-21T07:53:38;8.40;;;1.80;;
65658;SDS011;60181;53.258;6.932;2024-02-21T07:57:49;8.40;;;1.80;;
65658;SDS011;60181;53.258;6.932;2024-02-21T08:02:01;7.20;;;1.70;;
65658;SDS011;60181;53.258;6.932;2024-02-21T08:06:13;7.20;;;1.70;;
65658;SDS011;60181;53.258;6.932;2024-02-21T08:10:25;5.20;;;1.60;;
65658;SDS011;60181;53.258;6.932;2024-02-21T08:14:37;5.20;;;1.60;;
65658;SDS011;60181;53.258;6.932;2024-02-21T08:18:49;5.20;;;1.60;;
65658;SDS011;60181;53.258;6.932;2024-02-21T08:23:01;5.10;;;1.90;;
65658;SDS011;60181;53.258;6.932;2024-02-21T08:27:13;5.10;;;1.90;;
65658;SDS011;60181;53.258;6.932;2024-02-21T08:31:25;4.90;;;1.50;;
65658;SDS011;60181;53.258;6.932;2024-02-21T08:35:37;4.90;;;1.50;;
65658;SDS011;60181;53.258;6.932;2024-02-21T08:39:49;5.90;;;1.70;;
65658;SDS011;60181;53.258;6.932;2024-02-21T08:44:01;5.90;;;1.70;;
65658;SDS011;60181;53.258;6.932;2024-02-21T08:48:13;5.90;;;1.70;;
65658;SDS011;60181;53.258;6.932;2024-02-21T08:52:25;5.30;;;1.70;;
65658;SDS011;60181;53.258;6.932;2024-02-21T08:56:37;5.30;;;1.70;;
65658;SDS011;60181;53.258;6.932;2024-02-21T09:00:49;8.30;;;1.70;;
65658;SDS011;60181;53.258;6.932;2024-02-21T09:05:00;8.30;;;1.70;;
65658;SDS011;60181;53.258;6.932;2024-02-21T09:09:12;5.60;;;1.70;;
65658;SDS011;60181;53.258;6.932;2024-02-21T09:13:24;5.60;;;1.70;;
65658;SDS011;60181;53.258;6.932;2024-02-21T09:17:36;5.60;;;1.70;;
65658;SDS011;60181;53.258;6.932;2024-02-21T09:21:48;5.50;;;1.50;;
65658;SDS011;60181;53.258;6.932;2024-02-21T09:26:00;5.50;;;1.50;;
65658;SDS011;60181;53.258;6.932;2024-02-21T09:30:13;4.80;;;1.50;;
65658;SDS011;60181;53.258;6.932;2024-02-21T09:34:24;4.80;;;1.50;;
65658;SDS011;60181;53.258;6.932;2024-02-21T09:38:36;4.80;;;1.50;;
65658;SDS011;60181;53.258;6.932;2024-02-21T09:42:48;7.50;;;1.90;;
65658;SDS011;60181;53.258;6.932;2024-02-21T09:47:04;7.50;;;1.90;;
65658;SDS011;60181;53.258;6.932;2024-02-21T09:51:12;5.70;;;1.90;;
65658;SDS011;60181;53.258;6.932;2024-02-21T09:55:24;5.70;;;1.90;;
65658;SDS011;60181;53.258;6.932;2024-02-21T09:59:36;5.00;;;1.70;;
65658;SDS011;60181;53.258;6.932;2024-02-21T10:03:48;5.00;;;1.70;;
65658;SDS011;60181;53.258;6.932;2024-02-21T10:08:01;5.00;;;1.70;;
65658;SDS011;60181;53.258;6.932;2024-02-21T10:12:12;7.90;;;1.90;;
65658;SDS011;60181;53.258;6.932;2024-02-21T10:16:24;7.90;;;1.90;;
65658;SDS011;60181;53.258;6.932;2024-02-21T10:20:36;5.50;;;1.90;;
65658;SDS011;60181;53.258;6.932;2024-02-21T10:24:48;5.50;;;1.90;;
65658;SDS011;60181;53.258;6.932;2024-02-21T10:29:01;5.50;;;1.90;;
65658;SDS011;60181;53.258;6.932;2024-02-21T10:33:12;5.80;;;1.80;;
65658;SDS011;60181;53.258;6.932;2024-02-21T10:37:24;5.80;;;1.80;;
65658;SDS011;60181;53.258;6.932;2024-02-21T10:41:36;4.90;;;1.80;;
65658;SDS011;60181;53.258;6.932;2024-02-21T10:45:48;4.90;;;1.80;;
65658;SDS011;60181;53.258;6.932;2024-02-21T10:50:03;5.30;;;2.00;;
65658;SDS011;60181;53.258;6.932;2024-02-21T10:58:24;5.30;;;2.00;;
65658;SDS011;60181;53.258;6.932;2024-02-21T11:02:36;5.90;;;1.90;;
65658;SDS011;60181;53.258;6.932;2024-02-21T11:06:48;5.90;;;1.90;;
65658;SDS011;60181;53.258;6.932;2024-02-21T11:11:00;6.10;;;2.20;;
65658;SDS011;60181;53.258;6.932;2024-02-21T11:15:12;6.10;;;2.20;;
65658;SDS011;60181;53.258;6.932;2024-02-21T11:19:25;5.30;;;2.10;;
65658;SDS011;60181;53.258;6.932;2024-02-21T11:23:36;5.30;;;2.10;;
65658;SDS011;60181;53.258;6.932;2024-02-21T11:27:48;5.30;;;2.10;;
65658;SDS011;60181;53.258;6.932;2024-02-21T11:32:00;6.20;;;2.00;;
65658;SDS011;60181;53.258;6.932;2024-02-21T11:36:23;6.20;;;2.00;;
65658;SDS011;60181;53.258;6.932;2024-02-21T11:40:24;5.30;;;2.20;;
65658;SDS011;60181;53.258;6.932;2024-02-21T11:44:36;5.30;;;2.20;;
65658;SDS011;60181;53.258;6.932;2024-02-21T11:48:48;5.30;;;2.20;;
65658;SDS011;60181;53.258;6.932;2024-02-21T11:53:00;4.90;;;2.00;;
65658;SDS011;60181;53.258;6.932;2024-02-21T11:57:12;4.90;;;2.00;;
65658;SDS011;60181;53.258;6.932;2024-02-21T12:01:24;5.60;;;2.00;;
65658;SDS011;60181;53.258;6.932;2024-02-21T12:05:36;5.60;;;2.00;;
65658;SDS011;60181;53.258;6.932;2024-02-21T12:09:48;4.80;;;2.00;;
65658;SDS011;60181;53.258;6.932;2024-02-21T12:14:03;4.80;;;2.00;;
65658;SDS011;60181;53.258;6.932;2024-02-21T12:18:12;4.80;;;2.00;;
65658;SDS011;60181;53.258;6.932;2024-02-21T12:22:25;5.40;;;2.20;;
65658;SDS011;60181;53.258;6.932;2024-02-21T12:26:36;5.40;;;2.20;;
65658;SDS011;60181;53.258;6.932;2024-02-21T12:30:48;4.20;;;2.00;;
65658;SDS011;60181;53.258;6.932;2024-02-21T12:35:00;4.20;;;2.00;;
65658;SDS011;60181;53.258;6.932;2024-02-21T12:39:12;4.70;;;2.20;;
65658;SDS011;60181;53.258;6.932;2024-02-21T12:43:24;4.70;;;2.20;;
65658;SDS011;60181;53.258;6.932;2024-02-21T12:47:36;4.70;;;2.20;;
65658;SDS011;60181;53.258;6.932;2024-02-21T12:51:48;5.10;;;2.40;;
65658;SDS011;60181;53.258;6.932;2024-02-21T12:56:00;5.10;;;2.40;;
65658;SDS011;60181;53.258;6.932;2024-02-21T13:00:13;4.80;;;2.20;;
65658;SDS011;60181;53.258;6.932;2024-02-21T13:04:24;4.80;;;2.20;;
65658;SDS011;60181;53.258;6.932;2024-02-21T13:08:36;4.80;;;2.20;;
65658;SDS011;60181;53.258;6.932;2024-02-21T13:12:48;5.40;;;2.40;;
65658;SDS011;60181;53.258;6.932;2024-02-21T13:17:00;5.40;;;2.40;;
65658;SDS011;60181;53.258;6.932;2024-02-21T13:21:12;5.60;;;2.10;;
65658;SDS011;60181;53.258;6.932;2024-02-21T13:25:24;5.60;;;2.10;;
65658;SDS011;60181;53.258;6.932;2024-02-21T13:29:36;4.10;;;2.30;;
65658;SDS011;60181;53.258;6.932;2024-02-21T13:33:48;4.10;;;2.30;;
65658;SDS011;60181;53.258;6.932;2024-02-21T13:38:00;4.10;;;2.30;;
65658;SDS011;60181;53.258;6.932;2024-02-21T13:42:12;3.70;;;2.00;;
65658;SDS011;60181;53.258;6.932;2024-02-21T13:46:24;3.70;;;2.00;;
65658;SDS011;60181;53.258;6.932;2024-02-21T13:50:36;2.90;;;1.80;;
65658;SDS011;60181;53.258;6.932;2024-02-21T13:54:48;2.90;;;1.80;;
65658;SDS011;60181;53.258;6.932;2024-02-21T13:59:00;2.90;;;1.80;;
65658;SDS011;60181;53.258;6.932;2024-02-21T14:03:12;4.20;;;2.10;;
65658;SDS011;60181;53.258;6.932;2024-02-21T14:07:24;4.20;;;2.10;;
65658;SDS011;60181;53.258;6.932;2024-02-21T14:11:36;4.80;;;2.20;;
65658;SDS011;60181;53.258;6.932;2024-02-21T14:15:48;4.80;;;2.20;;
65658;SDS011;60181;53.258;6.932;2024-02-21T14:20:00;3.70;;;2.00;;
65658;SDS011;60181;53.258;6.932;2024-02-21T14:24:12;3.70;;;2.00;;
65658;SDS011;60181;53.258;6.932;2024-02-21T14:28:24;3.70;;;2.00;;
65658;SDS011;60181;53.258;6.932;2024-02-21T14:32:36;4.10;;;2.10;;
65658;SDS011;60181;53.258;6.932;2024-02-21T14:36:48;4.10;;;2.10;;
65658;SDS011;60181;53.258;6.932;2024-02-21T14:41:00;3.30;;;1.80;;
65658;SDS011;60181;53.258;6.932;2024-02-21T14:45:12;3.30;;;1.80;;
65658;SDS011;60181;53.258;6.932;2024-02-21T14:49:24;3.70;;;2.00;;
65658;SDS011;60181;53.258;6.932;2024-02-21T14:53:36;3.70;;;2.00;;
65658;SDS011;60181;53.258;6.932;2024-02-21T14:57:48;3.70;;;2.00;;
65658;SDS011;60181;53.258;6.932;2024-02-21T15:02:00;3.50;;;2.00;;
65658;SDS011;60181;53.258;6.932;2024-02-21T15:06:12;3.50;;;2.00;;
65658;SDS011;60181;53.258;6.932;2024-02-21T15:10:24;4.30;;;2.00;;
65658;SDS011;60181;53.258;6.932;2024-02-21T15:14:36;4.30;;;2.00;;
65658;SDS011;60181;53.258;6.932;2024-02-21T15:18:48;4.30;;;2.00;;
65658;SDS011;60181;53.258;6.932;2024-02-21T15:23:00;4.20;;;1.80;;
65658;SDS011;60181;53.258;6.932;2024-02-21T15:27:12;4.20;;;1.80;;
65658;SDS011;60181;53.258;6.932;2024-02-21T15:31:24;2.80;;;1.80;;
65658;SDS011;60181;53.258;6.932;2024-02-21T15:35:36;2.80;;;1.80;;
65658;SDS011;60181;53.258;6.932;2024-02-21T15:39:48;4.30;;;2.00;;
65658;SDS011;60181;53.258;6.932;2024-02-21T15:44:00;4.30;;;2.00;;
65658;SDS011;60181;53.258;6.932;2024-02-21T15:48:12;4.30;;;2.00;;
65658;SDS011;60181;53.258;6.932;2024-02-21T15:52:24;3.80;;;2.00;;
65658;SDS011;60181;53.258;6.932;2024-02-21T15:56:36;3.80;;;2.00;;
65658;SDS011;60181;53.258;6.932;2024-02-21T16:00:48;3.60;;;1.90;;
65658;SDS011;60181;53.258;6.932;2024-02-21T16:05:00;3.60;;;1.90;;
65658;SDS011;60181;53.258;6.932;2024-02-21T16:09:12;5.10;;;2.20;;
65658;SDS011;60181;53.258;6.932;2024-02-21T16:13:24;5.10;;;2.20;;
65658;SDS011;60181;53.258;6.932;2024-02-21T16:17:36;5.10;;;2.20;;
65658;SDS011;60181;53.258;6.932;2024-02-21T16:21:48;3.50;;;2.00;;
65658;SDS011;60181;53.258;6.932;2024-02-21T16:26:00;3.50;;;2.00;;
65658;SDS011;60181;53.258;6.932;2024-02-21T16:30:12;4.20;;;2.00;;
65658;SDS011;60181;53.258;6.932;2024-02-21T16:34:24;4.20;;;2.00;;
65658;SDS011;60181;53.258;6.932;2024-02-21T16:38:36;4.20;;;2.00;;
65658;SDS011;60181;53.258;6.932;2024-02-21T16:42:48;3.50;;;2.10;;
65658;SDS011;60181;53.258;6.932;2024-02-21T16:47:00;3.50;;;2.10;;
65658;SDS011;60181;53.258;6.932;2024-02-21T16:51:12;3.80;;;2.00;;
65658;SDS011;60181;53.258;6.932;2024-02-21T16:55:24;3.80;;;2.00;;
65658;SDS011;60181;53.258;6.932;2024-02-21T16:59:36;4.20;;;2.00;;
65658;SDS011;60181;53.258;6.932;2024-02-21T17:03:48;4.20;;;2.00;;
65658;SDS011;60181;53.258;6.932;2024-02-21T17:08:00;4.20;;;2.00;;
65658;SDS011;60181;53.258;6.932;2024-02-21T17:12:12;4.50;;;2.20;;
65658;SDS011;60181;53.258;6.932;2024-02-21T17:16:24;4.50;;;2.20;;
65658;SDS011;60181;53.258;6.932;2024-02-21T17:20:36;4.10;;;2.10;;
65658;SDS011;60181;53.258;6.932;2024-02-21T17:24:48;4.10;;;2.10;;
65658;SDS011;60181;53.258;6.932;2024-02-21T17:29:00;4.10;;;2.10;;
65658;SDS011;60181;53.258;6.932;2024-02-21T17:33:12;4.50;;;2.10;;
65658;SDS011;60181;53.258;6.932;2024-02-21T17:37:24;4.50;;;2.10;;
65658;SDS011;60181;53.258;6.932;2024-02-21T17:41:36;3.60;;;1.80;;
65658;SDS011;60181;53.258;6.932;2024-02-21T17:45:48;3.60;;;1.80;;
65658;SDS011;60181;53.258;6.932;2024-02-21T17:50:00;3.90;;;1.90;;
65658;SDS011;60181;53.258;6.932;2024-02-21T17:54:12;3.90;;;1.90;;
65658;SDS011;60181;53.258;6.932;2024-02-21T17:58:24;3.90;;;1.90;;
65658;SDS011;60181;53.258;6.932;2024-02-21T18:02:36;2.90;;;1.80;;
65658;SDS011;60181;53.258;6.932;2024-02-21T18:06:48;2.90;;;1.80;;
65658;SDS011;60181;53.258;6.932;2024-02-21T18:11:00;2.80;;;1.80;;
65658;SDS011;60181;53.258;6.932;2024-02-21T18:15:12;2.80;;;1.80;;
65658;SDS011;60181;53.258;6.932;2024-02-21T18:19:24;4.90;;;1.90;;
65658;SDS011;60181;53.258;6.932;2024-02-21T18:23:36;4.90;;;1.90;;
65658;SDS011;60181;53.258;6.932;2024-02-21T18:27:48;4.90;;;1.90;;
65658;SDS011;60181;53.258;6.932;2024-02-21T18:32:00;4.10;;;1.90;;
65658;SDS011;60181;53.258;6.932;2024-02-21T18:36:12;4.10;;;1.90;;
65658;SDS011;60181;53.258;6.932;2024-02-21T18:40:24;3.80;;;1.90;;
65658;SDS011;60181;53.258;6.932;2024-02-21T18:44:36;3.80;;;1.90;;
65658;SDS011;60181;53.258;6.932;2024-02-21T18:48:48;3.80;;;1.90;;
65658;SDS011;60181;53.258;6.932;2024-02-21T18:53:00;3.40;;;1.90;;
65658;SDS011;60181;53.258;6.932;2024-02-21T18:57:12;3.40;;;1.90;;
65658;SDS011;60181;53.258;6.932;2024-02-21T19:01:24;3.30;;;1.90;;
65658;SDS011;60181;53.258;6.932;2024-02-21T19:05:36;3.30;;;1.90;;
65658;SDS011;60181;53.258;6.932;2024-02-21T19:09:48;4.20;;;2.00;;
65658;SDS011;60181;53.258;6.932;2024-02-21T19:14:00;4.20;;;2.00;;
65658;SDS011;60181;53.258;6.932;2024-02-21T19:18:12;4.20;;;2.00;;
65658;SDS011;60181;53.258;6.932;2024-02-21T19:22:24;2.70;;;1.70;;
65658;SDS011;60181;53.258;6.932;2024-02-21T19:26:36;2.70;;;1.70;;
65658;SDS011;60181;53.258;6.932;2024-02-21T19:30:48;4.10;;;1.80;;
65658;SDS011;60181;53.258;6.932;2024-02-21T19:35:00;4.10;;;1.80;;
65658;SDS011;60181;53.258;6.932;2024-02-21T19:39:12;3.90;;;1.90;;
65658;SDS011;60181;53.258;6.932;2024-02-21T19:43:24;3.90;;;1.90;;
65658;SDS011;60181;53.258;6.932;2024-02-21T19:47:36;3.90;;;1.90;;
65658;SDS011;60181;53.258;6.932;2024-02-21T19:51:48;3.20;;;1.90;;
65658;SDS011;60181;53.258;6.932;2024-02-21T19:56:00;3.20;;;1.90;;
65658;SDS011;60181;53.258;6.932;2024-02-21T20:00:12;3.20;;;1.90;;
65658;SDS011;60181;53.258;6.932;2024-02-21T20:04:24;3.20;;;1.90;;
65658;SDS011;60181;53.258;6.932;2024-02-21T20:08:36;3.20;;;1.90;;
65658;SDS011;60181;53.258;6.932;2024-02-21T20:12:48;3.40;;;1.70;;
65658;SDS011;60181;53.258;6.932;2024-02-21T20:17:00;3.40;;;1.70;;
65658;SDS011;60181;53.258;6.932;2024-02-21T20:21:12;2.50;;;1.70;;
65658;SDS011;60181;53.258;6.932;2024-02-21T20:25:24;2.50;;;1.70;;
65658;SDS011;60181;53.258;6.932;2024-02-21T20:29:36;3.50;;;1.90;;
65658;SDS011;60181;53.258;6.932;2024-02-21T20:33:48;3.50;;;1.90;;
65658;SDS011;60181;53.258;6.932;2024-02-21T20:38:00;3.50;;;1.90;;
65658;SDS011;60181;53.258;6.932;2024-02-21T20:42:12;2.80;;;1.60;;
65658;SDS011;60181;53.258;6.932;2024-02-21T20:46:24;2.80;;;1.60;;
65658;SDS011;60181;53.258;6.932;2024-02-21T20:50:36;5.30;;;1.90;;
65658;SDS011;60181;53.258;6.932;2024-02-21T20:54:48;5.30;;;1.90;;
65658;SDS011;60181;53.258;6.932;2024-02-21T20:59:00;5.30;;;1.90;;
65658;SDS011;60181;53.258;6.932;2024-02-21T21:03:12;3.50;;;1.70;;
65658;SDS011;60181;53.258;6.932;2024-02-21T21:07:24;3.50;;;1.70;;
65658;SDS011;60181;53.258;6.932;2024-02-21T21:11:36;3.20;;;1.70;;
65658;SDS011;60181;53.258;6.932;2024-02-21T21:15:47;3.20;;;1.70;;
65658;SDS011;60181;53.258;6.932;2024-02-21T21:19:59;3.40;;;1.60;;
65658;SDS011;60181;53.258;6.932;2024-02-21T21:24:11;3.40;;;1.60;;
65658;SDS011;60181;53.258;6.932;2024-02-21T21:28:23;3.40;;;1.60;;
65658;SDS011;60181;53.258;6.932;2024-02-21T21:32:35;3.10;;;1.80;;
65658;SDS011;60181;53.258;6.932;2024-02-21T21:36:47;3.10;;;1.80;;
65658;SDS011;60181;53.258;6.932;2024-02-21T21:40:59;2.50;;;1.60;;
65658;SDS011;60181;53.258;6.932;2024-02-21T21:45:12;2.50;;;1.60;;
65658;SDS011;60181;53.258;6.932;2024-02-21T21:49:23;2.70;;;1.70;;
65658;SDS011;60181;53.258;6.932;2024-02-21T21:53:35;2.70;;;1.70;;
65658;SDS011;60181;53.258;6.932;2024-02-21T21:57:47;2.70;;;1.70;;
65658;SDS011;60181;53.258;6.932;2024-02-21T22:01:59;2.80;;;1.60;;
65658;SDS011;60181;53.258;6.932;2024-02-21T22:06:11;2.80;;;1.60;;
65658;SDS011;60181;53.258;6.932;2024-02-21T22:10:23;8.50;;;2.20;;
65658;SDS011;60181;53.258;6.932;2024-02-21T22:14:35;8.50;;;2.20;;
65658;SDS011;60181;53.258;6.932;2024-02-21T22:18:47;8.50;;;2.20;;
65658;SDS011;60181;53.258;6.932;2024-02-21T22:22:59;4.90;;;2.40;;
65658;SDS011;60181;53.258;6.932;2024-02-21T22:27:11;4.90;;;2.40;;
65658;SDS011;60181;53.258;6.932;2024-02-21T22:31:23;6.30;;;2.80;;
65658;SDS011;60181;53.258;6.932;2024-02-21T22:35:35;6.30;;;2.80;;
65658;SDS011;60181;53.258;6.932;2024-02-21T22:39:48;6.00;;;2.70;;
65658;SDS011;60181;53.258;6.932;2024-02-21T22:43:59;6.00;;;2.70;;
65658;SDS011;60181;53.258;6.932;2024-02-21T22:48:11;6.00;;;2.70;;
65658;SDS011;60181;53.258;6.932;2024-02-21T22:52:23;5.00;;;2.70;;
65658;SDS011;60181;53.258;6.932;2024-02-21T22:56:35;5.00;;;2.70;;
65658;SDS011;60181;53.258;6.932;2024-02-21T23:00:48;5.10;;;2.80;;
65658;SDS011;60181;53.258;6.932;2024-02-21T23:04:59;5.10;;;2.80;;
65658;SDS011;60181;53.258;6.932;2024-02-21T23:09:11;3.80;;;2.50;;
65658;SDS011;60181;53.258;6.932;2024-02-21T23:13:23;3.80;;;2.50;;
65658;SDS011;60181;53.258;6.932;2024-02-21T23:17:36;3.80;;;2.50;;
65658;SDS011;60181;53.258;6.932;2024-02-21T23:21:47;3.70;;;2.60;;
65658;SDS011;60181;53.258;6.932;2024-02-21T23:25:59;3.70;;;2.60;;
65658;SDS011;60181;53.258;6.932;2024-02-21T23:30:11;6.20;;;2.40;;
65658;SDS011;60181;53.258;6.932;2024-02-21T23:34:23;6.20;;;2.40;;
65658;SDS011;60181;53.258;6.932;2024-02-21T23:38:35;6.20;;;2.40;;
65658;SDS011;60181;53.258;6.932;2024-02-21T23:42:47;3.00;;;2.30;;
65658;SDS011;60181;53.258;6.932;2024-02-21T23:46:59;3.00;;;2.30;;
65658;SDS011;60181;53.258;6.932;2024-02-21T23:51:11;4.30;;;2.40;;
65658;SDS011;60181;53.258;6.932;2024-02-21T23:55:23;4.30;;;2.40;;
65658;SDS011;60181;53.258;6.932;2024-02-21T23:59:35;4.50;;;2.30;;
